createdAt,value
2024-05-09T00:00:51.696Z,12.79
2024-05-09T00:03:31.282Z,12.72
2024-05-09T00:06:01.998Z,12.50
2024-05-09T00:08:39.050Z,12.23
2024-05-09T00:11:23.575Z,11.98
2024-05-09T00:14:04.746Z,11.84
2024-05-09T00:16:36.924Z,11.76
2024-05-09T00:19:27.435Z,11.70
2024-05-09T00:21:57.555Z,11.65
2024-05-09T00:32:05.122Z,11.59
2024-05-09T00:35:11.274Z,11.58
2024-05-09T00:37:40.881Z,11.57
2024-05-09T00:40:37.682Z,11.59
2024-05-09T00:43:14.885Z,11.62
2024-05-09T00:45:54.232Z,11.62
2024-05-09T00:48:29.002Z,11.64
2024-05-09T00:51:17.848Z,11.63
2024-05-09T00:54:05.152Z,11.62
2024-05-09T00:57:20.499Z,11.57
2024-05-09T01:15:22.912Z,11.40
2024-05-09T01:17:56.282Z,11.38
2024-05-09T01:20:39.129Z,11.40
2024-05-09T01:23:16.143Z,11.42
2024-05-09T01:26:03.534Z,11.45
2024-05-09T01:28:37.846Z,11.49
2024-05-09T01:31:17.262Z,11.54
2024-05-09T01:33:53.558Z,11.60
2024-05-09T01:36:34.163Z,11.66
2024-05-09T01:39:31.224Z,11.68
2024-05-09T01:42:06.281Z,11.66
2024-05-09T01:44:43.399Z,11.58
2024-05-09T01:51:12.152Z,11.47
2024-05-09T01:53:41.062Z,11.42
2024-05-09T01:56:12.799Z,11.36
2024-05-09T01:58:42.308Z,11.33
2024-05-09T02:01:55.942Z,11.31
2024-05-09T02:04:37.068Z,11.31
2024-05-09T02:07:06.649Z,11.29
2024-05-09T02:09:35.320Z,11.29
2024-05-09T02:12:12.412Z,11.33
2024-05-09T02:14:42.359Z,11.32
2024-05-09T02:17:31.917Z,11.33
2024-05-09T02:20:02.740Z,11.32
2024-05-09T02:22:38.884Z,11.31
2024-05-09T02:25:27.862Z,11.30
2024-05-09T02:28:15.951Z,11.28
2024-05-09T02:31:09.126Z,11.25
2024-05-09T02:33:41.609Z,11.19
2024-05-09T02:36:32.760Z,11.14
2024-05-09T02:39:07.824Z,11.09
2024-05-09T02:41:44.052Z,11.05
2024-05-09T02:44:16.114Z,11.02
2024-05-09T02:46:46.254Z,10.98
2024-05-09T02:49:17.274Z,10.97
2024-05-09T02:51:51.382Z,10.99
2024-05-09T02:54:51.867Z,11.00
2024-05-09T02:57:22.452Z,10.99
2024-05-09T03:00:39.052Z,10.97
2024-05-09T03:03:16.576Z,10.97
2024-05-09T03:06:07.703Z,10.96
2024-05-09T03:08:37.438Z,10.98
2024-05-09T03:11:09.016Z,11.04
2024-05-09T03:13:41.840Z,11.10
2024-05-09T03:16:11.650Z,11.16
2024-05-09T03:19:12.796Z,11.20
2024-05-09T03:22:06.838Z,11.24
2024-05-09T03:25:10.472Z,11.27
2024-05-09T03:27:44.158Z,11.28
2024-05-09T03:30:38.505Z,11.28
2024-05-09T03:33:20.442Z,11.32
2024-05-09T03:35:52.199Z,11.35
2024-05-09T03:38:26.666Z,11.33
2024-05-09T03:41:04.244Z,11.30
2024-05-09T03:43:35.234Z,11.27
2024-05-09T03:46:06.417Z,11.30
2024-05-09T03:48:38.861Z,11.30
2024-05-09T03:51:09.263Z,11.31
2024-05-09T03:53:40.447Z,11.26
2024-05-09T03:56:19.692Z,11.27
2024-05-09T03:59:06.468Z,11.35
2024-05-09T04:02:22.816Z,11.37
2024-05-09T04:05:14.184Z,11.39
2024-05-09T04:08:14.313Z,11.32
2024-05-09T04:10:45.429Z,11.21
2024-05-09T04:13:20.612Z,11.16
2024-05-09T04:16:16.844Z,11.20
2024-05-09T04:19:40.198Z,11.31
2024-05-09T04:22:14.073Z,11.39
2024-05-09T04:24:47.952Z,11.33
2024-05-09T04:27:31.061Z,11.29
2024-05-09T04:30:02.481Z,11.24
2024-05-09T04:33:00.341Z,11.15
2024-05-09T04:35:31.264Z,11.19
2024-05-09T04:38:03.932Z,11.29
2024-05-09T04:41:00.322Z,11.43
2024-05-09T04:43:39.249Z,11.50
2024-05-09T04:46:46.347Z,11.48
2024-05-09T04:49:31.262Z,11.38
2024-05-09T04:52:02.970Z,11.33
2024-05-09T04:54:48.887Z,11.31
2024-05-09T04:57:29.556Z,11.30
2024-05-09T05:00:28.090Z,11.33
2024-05-09T05:03:29.532Z,11.36
2024-05-09T05:07:12.298Z,11.44
2024-05-09T05:09:45.479Z,11.52
2024-05-09T05:12:38.062Z,11.59
2024-05-09T05:15:07.279Z,11.69
2024-05-09T05:17:43.601Z,11.81
2024-05-09T05:22:00.772Z,11.86
2024-05-09T05:24:53.479Z,11.85
2024-05-09T05:27:48.684Z,11.92
2024-05-09T05:30:44.881Z,12.06
2024-05-09T05:33:30.818Z,12.15
2024-05-09T05:36:03.513Z,12.23
2024-05-09T05:38:39.898Z,12.36
2024-05-09T05:41:28.666Z,12.49
2024-05-09T05:44:09.209Z,12.62
2024-05-09T05:46:47.975Z,12.73
2024-05-09T05:52:11.872Z,12.93
2024-05-09T05:54:49.455Z,12.89
2024-05-09T05:57:26.656Z,12.69
2024-05-09T06:00:02.191Z,12.65
2024-05-09T06:02:46.762Z,12.80
2024-05-09T06:05:20.277Z,12.91
2024-05-09T06:08:04.243Z,12.92
2024-05-09T06:11:00.551Z,13.04
2024-05-09T06:13:35.678Z,13.24
2024-05-09T06:16:41.773Z,13.46
2024-05-09T06:19:20.597Z,13.63
2024-05-09T06:22:20.332Z,13.72
2024-05-09T06:24:57.277Z,13.80
2024-05-09T06:27:40.314Z,13.89
2024-05-09T06:30:24.828Z,14.02
2024-05-09T06:32:57.924Z,14.06
2024-05-09T06:35:35.803Z,14.10
2024-05-09T06:38:06.548Z,14.18
2024-05-09T06:40:38.404Z,14.23
2024-05-09T06:43:16.768Z,14.28
2024-05-09T06:45:47.347Z,14.27
2024-05-09T06:48:17.036Z,14.36
2024-05-09T06:50:44.789Z,14.43
2024-05-09T06:53:14.798Z,14.48
2024-05-09T06:55:42.852Z,14.51
2024-05-09T06:58:10.610Z,14.53
2024-05-09T07:00:40.661Z,14.55
2024-05-09T07:03:12.448Z,14.58
2024-05-09T07:05:42.522Z,14.66
2024-05-09T07:08:10.765Z,14.76
2024-05-09T07:10:41.185Z,14.86
2024-05-09T07:13:12.736Z,14.91
2024-05-09T07:15:41.082Z,14.94
2024-05-09T07:18:15.566Z,14.94
2024-05-09T07:20:44.046Z,14.96
2024-05-09T07:23:13.282Z,14.99
2024-05-09T07:25:43.567Z,15.03
2024-05-09T07:28:18.185Z,15.00
2024-05-09T07:30:46.648Z,15.01
2024-05-09T07:33:23.103Z,15.07
2024-05-09T07:35:52.231Z,15.07
2024-05-09T07:38:20.839Z,14.99
2024-05-09T07:40:49.219Z,14.80
2024-05-09T07:43:17.063Z,14.61
2024-05-09T07:45:52.425Z,14.52
2024-05-09T07:52:38.055Z,14.45
2024-05-09T07:53:48.825Z,14.53
2024-05-09T07:56:22.899Z,14.62
2024-05-09T07:58:53.449Z,14.71
2024-05-09T08:01:26.772Z,14.82
2024-05-09T08:03:58.572Z,14.88
2024-05-09T08:15:11.218Z,14.57
2024-05-09T08:18:14.187Z,14.71
2024-05-09T08:21:12.845Z,14.94
2024-05-09T08:28:23.381Z,15.34
2024-05-09T08:30:55.075Z,15.42
2024-05-09T08:47:53.461Z,15.72
2024-05-09T08:50:55.061Z,15.80
2024-05-09T08:54:22.907Z,15.86
2024-05-09T08:57:24.135Z,15.64
2024-05-09T09:00:33.688Z,15.46
2024-05-09T09:03:37.725Z,15.38
2024-05-09T09:06:18.046Z,15.38
2024-05-09T09:08:56.642Z,15.40
2024-05-09T09:18:16.848Z,15.63
2024-05-09T09:20:50.942Z,15.81
2024-05-09T09:23:28.897Z,15.89
2024-05-09T09:26:32.324Z,15.97
2024-05-09T09:29:06.011Z,16.15
2024-05-09T09:32:09.096Z,16.13
2024-05-09T09:34:45.168Z,16.08
2024-05-09T09:37:21.518Z,16.18
2024-05-09T09:39:53.024Z,16.27
2024-05-09T09:42:28.830Z,16.16
2024-05-09T09:48:18.475Z,16.17
2024-05-09T09:50:51.703Z,16.28
2024-05-09T09:53:22.505Z,16.29
2024-05-09T09:56:01.804Z,16.32
2024-05-09T09:58:41.587Z,16.35
2024-05-09T10:01:18.227Z,16.48
2024-05-09T10:04:16.316Z,16.65
2024-05-09T10:06:49.386Z,16.81
2024-05-09T10:09:17.671Z,16.81
2024-05-09T10:11:49.256Z,16.78
2024-05-09T10:14:22.572Z,16.75
2024-05-09T10:16:49.891Z,16.82
2024-05-09T10:19:23.844Z,16.89
2024-05-09T10:21:51.805Z,16.88
2024-05-09T10:24:20.036Z,16.80
2024-05-09T10:26:52.565Z,16.77
2024-05-09T10:29:19.782Z,16.77
2024-05-09T10:31:47.194Z,16.77
2024-05-09T10:34:22.232Z,16.89
2024-05-09T10:36:56.068Z,17.06
2024-05-09T10:39:24.439Z,17.09
2024-05-09T10:41:52.065Z,16.95
2024-05-09T10:44:19.145Z,16.86
2024-05-09T10:46:46.332Z,16.83
2024-05-09T10:49:13.804Z,16.87
2024-05-09T10:51:44.090Z,16.92
2024-05-09T10:54:12.014Z,16.96
2024-05-09T10:56:39.219Z,17.02
2024-05-09T10:59:06.399Z,17.08
2024-05-09T11:01:33.666Z,17.05
2024-05-09T11:04:03.445Z,16.99
2024-05-09T11:06:31.128Z,16.85
2024-05-09T11:08:58.761Z,16.80
2024-05-09T11:11:25.885Z,16.91
2024-05-09T11:13:54.841Z,16.99
2024-05-09T11:16:22.626Z,17.03
2024-05-09T11:18:55.205Z,17.12
2024-05-09T11:21:23.821Z,17.14
2024-05-09T11:23:53.337Z,17.08
2024-05-09T11:26:24.100Z,17.11
2024-05-09T11:29:06.969Z,17.18
2024-05-09T11:31:47.473Z,17.17
2024-05-09T11:34:15.157Z,17.20
2024-05-09T11:36:42.366Z,17.26
2024-05-09T11:39:16.513Z,17.37
2024-05-09T11:44:37.364Z,17.24
2024-05-09T11:47:07.344Z,17.45
2024-05-09T11:49:59.574Z,17.59
2024-05-09T11:52:39.678Z,17.77
2024-05-09T11:55:14.756Z,17.94
2024-05-09T11:58:09.237Z,18.07
2024-05-09T12:01:14.350Z,18.18
2024-05-09T12:03:59.168Z,18.17
2024-05-09T12:06:38.924Z,18.11
2024-05-09T12:09:07.164Z,18.07
2024-05-09T12:11:38.725Z,18.06
2024-05-09T12:14:11.237Z,18.11
2024-05-09T12:16:41.435Z,18.17
2024-05-09T12:19:13.072Z,18.24
2024-05-09T12:21:46.866Z,18.32
2024-05-09T12:24:19.140Z,18.34
2024-05-09T12:26:55.056Z,18.21
2024-05-09T12:29:38.294Z,18.06
2024-05-09T12:32:12.629Z,17.96
2024-05-09T12:34:47.489Z,17.92
2024-05-09T12:37:43.683Z,17.94
2024-05-09T12:40:26.871Z,17.98
2024-05-09T12:43:13.133Z,18.03
2024-05-09T12:45:49.484Z,18.04
2024-05-09T12:48:21.964Z,18.00
2024-05-09T12:50:52.253Z,18.06
2024-05-09T12:53:24.844Z,18.08
2024-05-09T12:56:02.253Z,18.06
2024-05-09T12:58:41.670Z,18.08
2024-05-09T13:01:17.948Z,18.08
2024-05-09T13:04:02.585Z,18.02
2024-05-09T13:06:34.991Z,17.97
2024-05-09T13:10:31.960Z,17.90
2024-05-09T13:13:30.294Z,17.89
2024-05-09T13:16:02.460Z,17.96
2024-05-09T13:18:43.083Z,18.02
2024-05-09T13:21:22.739Z,18.01
2024-05-09T13:28:46.893Z,17.98
2024-05-09T13:31:26.223Z,18.08
2024-05-09T13:34:03.513Z,18.11
2024-05-09T13:36:42.042Z,18.09
2024-05-09T13:41:53.110Z,18.30
2024-05-09T13:45:17.376Z,18.43
2024-05-09T13:47:49.037Z,18.60
2024-05-09T13:50:49.237Z,18.67
2024-05-09T13:53:26.079Z,18.71
2024-05-09T13:56:10.150Z,18.78
2024-05-09T13:58:50.013Z,18.94
2024-05-09T14:01:22.073Z,19.01
2024-05-09T14:04:19.426Z,19.04
2024-05-09T14:07:18.283Z,18.96
2024-05-09T14:10:13.714Z,18.94
2024-05-09T14:13:32.137Z,19.13
2024-05-09T14:16:05.452Z,19.27
2024-05-09T14:18:38.977Z,19.24
2024-05-09T14:21:32.855Z,19.30
2024-05-09T14:24:08.586Z,19.40
2024-05-09T14:26:38.660Z,19.48
2024-05-09T14:29:32.933Z,19.52
2024-05-09T14:33:27.424Z,19.52
2024-05-09T14:35:58.246Z,19.55
2024-05-09T14:38:30.500Z,19.61
2024-05-09T14:41:12.978Z,19.73
2024-05-09T14:43:56.198Z,19.85
2024-05-09T14:46:29.976Z,19.92
2024-05-09T14:48:59.102Z,19.84
2024-05-09T14:51:33.560Z,19.76
2024-05-09T14:54:03.324Z,19.87
2024-05-09T14:57:04.030Z,19.94
2024-05-09T14:59:37.090Z,20.02
2024-05-09T15:02:11.432Z,19.97
2024-05-09T15:04:46.542Z,20.01
2024-05-09T15:07:34.664Z,19.88
2024-05-09T15:10:13.512Z,19.80
2024-05-09T15:12:52.861Z,19.86
2024-05-09T15:15:29.325Z,19.76
2024-05-09T15:18:08.191Z,19.70
2024-05-09T15:20:44.519Z,19.65
2024-05-09T15:23:25.949Z,19.72
2024-05-09T15:26:10.110Z,19.76
2024-05-09T15:28:46.517Z,19.67
2024-05-09T15:38:00.832Z,19.48
2024-05-09T15:41:09.534Z,19.57
2024-05-09T15:43:48.679Z,19.48
2024-05-09T15:47:44.661Z,19.37
2024-05-09T15:50:23.472Z,19.39
2024-05-09T15:53:11.262Z,19.36
2024-05-09T15:55:54.596Z,19.38
2024-05-09T15:58:41.266Z,19.32
2024-05-09T16:01:21.656Z,19.23
2024-05-09T16:04:07.919Z,19.18
2024-05-09T16:07:17.085Z,19.21
2024-05-09T16:09:51.797Z,19.22
2024-05-09T16:19:43.862Z,18.80
2024-05-09T16:22:22.242Z,18.69
2024-05-09T16:24:53.677Z,18.49
2024-05-09T16:27:57.951Z,18.33
2024-05-09T16:30:35.744Z,18.20
2024-05-09T16:33:17.285Z,18.09
2024-05-09T16:36:18.816Z,18.01
2024-05-09T16:39:05.473Z,17.93
2024-05-09T16:45:58.079Z,17.74
2024-05-09T16:48:44.978Z,17.65
2024-05-09T16:51:20.146Z,17.58
2024-05-09T16:54:19.766Z,17.48
2024-05-09T16:57:04.702Z,17.35
2024-05-09T16:59:57.211Z,17.21
2024-05-09T17:03:21.017Z,17.16
2024-05-09T17:24:29.699Z,16.28
2024-05-09T17:27:06.347Z,16.13
2024-05-09T17:29:55.396Z,16.01
2024-05-09T17:32:32.228Z,15.92
2024-05-09T17:35:28.861Z,15.86
2024-05-09T17:38:10.814Z,15.80
2024-05-09T17:40:49.982Z,15.73
2024-05-09T17:43:46.385Z,15.68
2024-05-09T17:46:36.831Z,15.60
2024-05-09T17:49:10.044Z,15.53
2024-05-09T18:09:46.348Z,15.14
2024-05-09T18:12:26.072Z,15.09
2024-05-09T18:15:22.344Z,15.06
2024-05-09T18:18:37.486Z,15.01
2024-05-09T18:24:51.114Z,14.91
2024-05-09T18:28:01.247Z,14.86
2024-05-09T18:31:02.426Z,14.79
2024-05-09T18:33:36.608Z,14.73
2024-05-09T18:36:31.720Z,14.68
2024-05-09T18:39:56.222Z,14.62
2024-05-09T18:43:11.061Z,14.58
2024-05-09T18:46:38.828Z,14.58
2024-05-09T18:49:38.996Z,14.54
2024-05-09T18:52:31.158Z,14.47
2024-05-09T18:55:05.852Z,14.43
2024-05-09T18:58:29.597Z,14.40
2024-05-09T19:01:48.467Z,14.36
2024-05-09T19:08:29.798Z,14.29
2024-05-09T19:11:29.342Z,14.22
2024-05-09T19:14:25.506Z,14.22
2024-05-09T19:21:06.647Z,14.20
2024-05-09T19:24:02.913Z,14.16
2024-05-09T19:27:09.307Z,14.14
2024-05-09T19:30:13.871Z,14.11
2024-05-09T19:32:58.333Z,14.07
2024-05-09T19:36:13.312Z,14.02
2024-05-09T19:39:09.208Z,13.97
2024-05-09T19:42:09.398Z,13.92
2024-05-09T19:45:29.995Z,13.87
2024-05-09T19:48:14.169Z,13.83
2024-05-09T19:50:52.908Z,13.79
2024-05-09T19:53:43.057Z,13.74
2024-05-09T19:56:47.771Z,13.68
2024-05-09T19:59:29.002Z,13.61
2024-05-09T20:02:03.434Z,13.57
2024-05-09T20:05:08.165Z,13.53
2024-05-09T20:08:08.101Z,13.48
2024-05-09T20:10:55.172Z,13.45
2024-05-09T20:13:42.220Z,13.42
2024-05-09T20:16:31.980Z,13.39
2024-05-09T20:19:05.865Z,13.34
2024-05-09T20:21:59.973Z,13.32
2024-05-09T20:24:42.656Z,13.30
2024-05-09T20:27:39.981Z,13.25
2024-05-09T20:30:41.277Z,13.25
2024-05-09T20:33:48.036Z,13.23
2024-05-09T20:36:52.814Z,13.21
2024-05-09T20:39:44.735Z,13.20
2024-05-09T20:42:50.379Z,13.20
2024-05-09T20:45:33.690Z,13.18
2024-05-09T20:48:08.922Z,13.15
2024-05-09T20:50:42.202Z,13.15
2024-05-09T20:53:14.895Z,13.13
2024-05-09T20:56:23.662Z,13.09
2024-05-09T20:59:01.721Z,13.04
2024-05-09T21:01:32.378Z,13.01
2024-05-09T21:04:06.949Z,13.01
2024-05-09T21:06:44.204Z,12.98
2024-05-09T21:09:16.234Z,12.94
2024-05-09T21:11:54.399Z,12.91
2024-05-09T21:14:26.000Z,12.90
2024-05-09T21:17:03.023Z,12.88
2024-05-09T21:20:24.284Z,12.87
2024-05-09T21:23:12.764Z,12.85
2024-05-09T21:26:09.792Z,12.83
2024-05-09T21:28:41.156Z,12.81
2024-05-09T21:31:11.063Z,12.78
2024-05-09T21:33:45.219Z,12.76
2024-05-09T21:36:34.175Z,12.74
2024-05-09T21:39:11.772Z,12.70
2024-05-09T21:41:40.628Z,12.68
2024-05-09T21:44:11.913Z,12.66
2024-05-09T21:46:59.077Z,12.67
2024-05-09T21:50:39.581Z,12.64
2024-05-09T21:53:25.518Z,12.58
2024-05-09T21:56:08.871Z,12.54
2024-05-09T21:59:08.800Z,12.53
2024-05-09T22:01:44.798Z,12.52
2024-05-09T22:04:25.864Z,12.50
2024-05-09T22:06:54.128Z,12.48
2024-05-09T22:09:30.277Z,12.47
2024-05-09T22:12:04.971Z,12.46
2024-05-09T22:14:37.523Z,12.43
2024-05-09T22:17:16.402Z,12.41
2024-05-09T22:19:50.221Z,12.39
2024-05-09T22:22:21.010Z,12.37
2024-05-09T22:24:51.847Z,12.32
2024-05-09T22:27:22.244Z,12.29
2024-05-09T22:29:54.630Z,12.26
2024-05-09T22:32:34.959Z,12.23
2024-05-09T22:35:08.258Z,12.22
2024-05-09T22:37:48.640Z,12.20
2024-05-09T22:40:24.467Z,12.19
2024-05-09T22:43:04.815Z,12.16
2024-05-09T22:45:38.172Z,12.13
2024-05-09T22:48:10.673Z,12.12
2024-05-09T22:50:45.604Z,12.10
2024-05-09T22:53:26.207Z,12.08
2024-05-09T22:55:59.519Z,12.06
2024-05-09T22:58:34.822Z,12.04
2024-05-09T23:01:06.405Z,11.99
2024-05-09T23:03:38.741Z,11.97
2024-05-09T23:06:08.089Z,11.95
2024-05-09T23:08:44.236Z,11.94
2024-05-09T23:11:13.788Z,11.94
2024-05-09T23:13:43.558Z,11.92
2024-05-09T23:16:13.778Z,11.90
2024-05-09T23:18:43.211Z,11.89
2024-05-09T23:21:17.661Z,11.85
2024-05-09T23:23:45.198Z,11.82
2024-05-09T23:26:15.306Z,11.80
2024-05-09T23:28:51.666Z,11.80
2024-05-09T23:31:29.315Z,11.81
2024-05-09T23:34:01.904Z,11.81
2024-05-09T23:43:20.049Z,11.81
2024-05-09T23:45:52.353Z,11.79
2024-05-09T23:48:21.689Z,11.79
2024-05-09T23:50:56.615Z,11.77
2024-05-09T23:53:27.026Z,11.78
